createdAt,value
2023-02-27T00:00:23.648Z,9.300
2023-02-27T00:01:22.701Z,7.900
2023-02-27T00:02:22.905Z,8.199
2023-02-27T00:04:22.125Z,9.300
2023-02-27T00:05:22.444Z,9.5
2023-02-27T00:06:22.321Z,9.199
2023-02-27T00:07:22.852Z,8.100
2023-02-27T00:08:21.883Z,7.5
2023-02-27T00:09:22.075Z,9.800
2023-02-27T00:10:23.306Z,8.399
2023-02-27T00:11:22.378Z,9.399
2023-02-27T00:12:22.742Z,8.699
2023-02-27T00:13:22.075Z,8.100
2023-02-27T00:14:22.637Z,8.399
2023-02-27T00:15:22.594Z,9.199
2023-02-27T00:16:22.108Z,8.300
2023-02-27T00:17:22.239Z,8.800
2023-02-27T00:18:22.316Z,7.699
2023-02-27T00:19:22.385Z,8
2023-02-27T00:20:22.103Z,8.399
2023-02-27T00:21:23.044Z,8.199
2023-02-27T00:22:22.319Z,8.699
2023-02-27T00:23:21.800Z,7.900
2023-02-27T00:24:21.753Z,8.699
2023-02-27T00:25:41.419Z,7.300
2023-02-27T00:26:22.662Z,6.800
2023-02-27T00:27:22.521Z,7.099
2023-02-27T00:28:22.492Z,6.900
2023-02-27T00:29:21.900Z,6.800
2023-02-27T00:30:23.193Z,6.599
2023-02-27T00:31:22.455Z,6.800
2023-02-27T00:32:22.739Z,7.300
2023-02-27T00:33:21.804Z,7.199
2023-02-27T00:34:22.490Z,7.5
2023-02-27T00:35:22.277Z,7.199
2023-02-27T00:36:22.542Z,7.400
2023-02-27T00:37:22.254Z,6.5
2023-02-27T00:38:21.888Z,9.300
2023-02-27T00:39:22.709Z,6.400
2023-02-27T00:40:22.445Z,7.199
2023-02-27T00:41:22.681Z,6
2023-02-27T00:42:22.886Z,6.5
2023-02-27T00:43:22.512Z,6.300
2023-02-27T00:44:21.998Z,6.099
2023-02-27T00:45:21.979Z,7.800
2023-02-27T00:46:22.807Z,6.5
2023-02-27T00:47:21.907Z,7
2023-02-27T00:48:22.273Z,7.699
2023-02-27T00:49:21.994Z,6.900
2023-02-27T00:50:22.972Z,6.699
2023-02-27T00:52:22.638Z,6.400
2023-02-27T00:53:22.464Z,6.900
2023-02-27T00:54:22.590Z,6.099
2023-02-27T00:55:22.665Z,5.699
2023-02-27T00:56:23.108Z,6.199
2023-02-27T00:57:21.748Z,5.900
2023-02-27T00:58:21.645Z,6
2023-02-27T01:00:24.564Z,6.5
2023-02-27T01:01:26.423Z,7.300
2023-02-27T01:02:23.012Z,6.300
2023-02-27T01:03:21.951Z,6
2023-02-27T01:04:21.670Z,5.300
2023-02-27T01:05:22.690Z,5.199
2023-02-27T01:06:22.560Z,6.300
2023-02-27T01:07:22.762Z,7
2023-02-27T01:08:22.324Z,5
2023-02-27T01:09:22.068Z,6.400
2023-02-27T01:10:22.985Z,5.800
2023-02-27T01:11:21.996Z,7
2023-02-27T01:12:22.388Z,6.900
2023-02-27T01:13:22.115Z,5.900
2023-02-27T01:14:21.458Z,7
2023-02-27T01:15:22.959Z,5.599
2023-02-27T01:16:21.491Z,5.800
2023-02-27T01:17:22.544Z,5.599
2023-02-27T01:18:21.881Z,6.900
2023-02-27T01:19:22.092Z,5.199
2023-02-27T01:20:22.490Z,5.900
2023-02-27T01:21:22.522Z,5.400
2023-02-27T01:22:22.649Z,6.599
2023-02-27T01:23:22.405Z,5.199
2023-02-27T01:24:22.307Z,6.099
2023-02-27T01:25:22.663Z,5.800
2023-02-27T01:26:22.200Z,5.400
2023-02-27T01:27:22.311Z,7
2023-02-27T01:28:22.304Z,5.400
2023-02-27T01:29:21.933Z,7.400
2023-02-27T01:30:22.253Z,5.699
2023-02-27T01:31:21.786Z,5.599
2023-02-27T01:32:23.008Z,6.5
2023-02-27T01:33:21.832Z,6.300
2023-02-27T01:34:22.285Z,5.699
2023-02-27T01:35:22.646Z,5.300
2023-02-27T01:36:22.307Z,5.099
2023-02-27T01:37:22.532Z,5.400
2023-02-27T01:38:22.075Z,6.199
2023-02-27T01:39:22.251Z,5.5
2023-02-27T01:40:22.132Z,5.900
2023-02-27T01:41:21.779Z,5.199
2023-02-27T01:42:22.373Z,5.599
2023-02-27T01:43:21.812Z,5.900
2023-02-27T01:44:21.981Z,5.099
2023-02-27T01:45:22.186Z,5.400
2023-02-27T01:46:23.045Z,6.900
2023-02-27T01:47:22.230Z,6.599
2023-02-27T01:48:22.534Z,6
2023-02-27T01:49:22.054Z,5.199
2023-02-27T01:50:22.905Z,4.800
2023-02-27T01:51:22.627Z,5.300
2023-02-27T01:52:22.364Z,4.800
2023-02-27T01:53:22.021Z,5.699
2023-02-27T01:54:21.697Z,5.300
2023-02-27T01:55:22.308Z,5.599
2023-02-27T01:56:21.664Z,5.900
2023-02-27T01:57:22.423Z,5.800
2023-02-27T01:58:22.042Z,5.300
2023-02-27T01:59:22.497Z,5.599
2023-02-27T02:00:23.035Z,4.900
2023-02-27T02:01:23.073Z,5
2023-02-27T02:02:22.255Z,5.5
2023-02-27T02:03:22.143Z,5.900
2023-02-27T02:04:26.842Z,5
2023-02-27T02:05:22.928Z,5.199
2023-02-27T02:06:22.303Z,5.400
2023-02-27T02:07:22.273Z,4.5
2023-02-27T02:08:22.111Z,5.099
2023-02-27T02:09:21.862Z,5.5
2023-02-27T02:10:22.173Z,5.300
2023-02-27T02:11:22.264Z,5.099
2023-02-27T02:12:22.247Z,5.5
2023-02-27T02:13:21.874Z,5.099
2023-02-27T02:14:22.241Z,5.599
2023-02-27T02:15:23.101Z,5.300
2023-02-27T02:16:22.476Z,5.699
2023-02-27T02:17:22.090Z,5
2023-02-27T02:19:21.664Z,5.900
2023-02-27T02:20:21.807Z,5
2023-02-27T02:21:22.286Z,5.5
2023-02-27T02:22:22.477Z,4.900
2023-02-27T02:23:21.950Z,6.300
2023-02-27T02:24:22.035Z,5.400
2023-02-27T02:25:22.339Z,5.900
2023-02-27T02:26:36.068Z,5.800
2023-02-27T02:27:22.641Z,4.5
2023-02-27T02:28:35.893Z,5.300
2023-02-27T02:29:22.182Z,4.400
2023-02-27T02:30:22.393Z,5.400
2023-02-27T02:31:22.372Z,4.5
2023-02-27T02:32:22.412Z,5.199
2023-02-27T02:33:22.283Z,5.099
2023-02-27T02:34:22.775Z,5.900
2023-02-27T02:35:22.317Z,4.800
2023-02-27T02:36:22.247Z,5.199
2023-02-27T02:37:21.637Z,4.5
2023-02-27T02:38:22.058Z,5.199
2023-02-27T02:39:22.122Z,5.599
2023-02-27T02:40:22.483Z,4.800
2023-02-27T02:41:22.605Z,4.699
2023-02-27T02:42:21.810Z,6.099
2023-02-27T02:43:21.833Z,5.400
2023-02-27T02:44:22.244Z,5
2023-02-27T02:45:22.476Z,5.5
2023-02-27T02:46:22.306Z,5.099
2023-02-27T02:47:22.520Z,5.699
2023-02-27T02:48:22.047Z,5.099
2023-02-27T02:49:22.752Z,5.199
2023-02-27T02:50:22.837Z,6.300
2023-02-27T02:51:22.403Z,5.099
2023-02-27T02:52:23.061Z,5
2023-02-27T02:53:22.105Z,5.400
2023-02-27T02:54:22.643Z,5.699
2023-02-27T02:55:22.039Z,6.099
2023-02-27T02:56:22.675Z,5.800
2023-02-27T02:57:22.229Z,6.199
2023-02-27T02:58:22.469Z,5.199
2023-02-27T02:59:23.038Z,4.900
2023-02-27T03:00:24.378Z,5
2023-02-27T03:02:22.825Z,5.400
2023-02-27T03:03:22.401Z,4.5
2023-02-27T03:04:21.778Z,4.900
2023-02-27T03:05:22.672Z,5
2023-02-27T03:06:22.070Z,4.900
2023-02-27T03:07:22.487Z,4.800
2023-02-27T03:08:22.052Z,4.400
2023-02-27T03:09:22.575Z,5.599
2023-02-27T03:10:22.817Z,4.900
2023-02-27T03:11:22.278Z,4.699
2023-02-27T03:12:23.094Z,5.199
2023-02-27T03:13:21.471Z,4.900
2023-02-27T03:15:21.811Z,5.699
2023-02-27T03:16:22.651Z,5.300
2023-02-27T03:17:22.508Z,6.5
2023-02-27T03:18:22.763Z,5.800
2023-02-27T03:20:22.079Z,4.900
2023-02-27T03:21:22.711Z,4.599
2023-02-27T03:22:21.426Z,6
2023-02-27T03:23:22.232Z,4
2023-02-27T03:24:21.636Z,5
2023-02-27T03:25:21.845Z,5.099
2023-02-27T03:26:21.467Z,5.300
2023-02-27T03:27:21.668Z,5.400
2023-02-27T03:28:22.200Z,4.800
2023-02-27T03:29:22.143Z,4.699
2023-02-27T03:30:22.272Z,5.199
2023-02-27T03:32:22.518Z,4.699
2023-02-27T03:33:21.784Z,4.5
2023-02-27T03:34:22.003Z,4.900
2023-02-27T03:35:22.086Z,5
2023-02-27T03:36:23.214Z,4.800
2023-02-27T03:37:22.156Z,4.699
2023-02-27T03:38:21.811Z,5.199
2023-02-27T03:39:22.532Z,4.800
2023-02-27T03:40:22.638Z,5.099
2023-02-27T03:41:22.427Z,5
2023-02-27T03:42:22.348Z,5.599
2023-02-27T03:43:21.984Z,5.099
2023-02-27T03:44:22.450Z,5
2023-02-27T03:45:22.716Z,5.800
2023-02-27T03:46:21.991Z,6.300
2023-02-27T03:47:22.474Z,5.300
2023-02-27T03:48:21.794Z,5.099
2023-02-27T03:49:21.673Z,5.699
2023-02-27T03:50:22.434Z,4.800
2023-02-27T03:51:22.466Z,5.099
2023-02-27T03:52:22.998Z,5.599
2023-02-27T03:53:21.556Z,4.5
2023-02-27T03:54:22.394Z,4.800
2023-02-27T03:55:22.215Z,4.900
2023-02-27T03:56:21.987Z,5.400
2023-02-27T03:57:22.243Z,5.900
2023-02-27T03:58:21.948Z,4.800
2023-02-27T03:59:22.021Z,5.5
2023-02-27T04:01:23.037Z,5.099
2023-02-27T04:02:23.093Z,6.5
2023-02-27T04:03:22.416Z,4.5
2023-02-27T04:04:22.533Z,5.699
2023-02-27T04:05:22.100Z,5.199
2023-02-27T04:06:22.155Z,5.099
2023-02-27T04:07:22.124Z,4.800
2023-02-27T04:08:22.242Z,5.099
2023-02-27T04:09:22.544Z,5.400
2023-02-27T04:10:23.142Z,4.900
2023-02-27T04:11:23.118Z,4.800
2023-02-27T04:12:23.019Z,5.699
2023-02-27T04:13:22.357Z,4.699
2023-02-27T04:14:22.817Z,6.199
2023-02-27T04:15:22.761Z,4.400
2023-02-27T04:16:22.303Z,4.699
2023-02-27T04:17:22.715Z,5.400
2023-02-27T04:18:22.458Z,6.300
2023-02-27T04:19:22.577Z,6.599
2023-02-27T04:20:22.769Z,4.900
2023-02-27T04:21:22.327Z,4.599
2023-02-27T04:22:21.832Z,6.099
2023-02-27T04:23:21.533Z,4.599
2023-02-27T04:24:22.036Z,5.400
2023-02-27T04:25:21.963Z,5.199
2023-02-27T04:26:22.247Z,5.300
2023-02-27T04:27:22.115Z,5.5
2023-02-27T04:28:22.673Z,5.699
2023-02-27T04:29:22.219Z,5.199
2023-02-27T04:30:23.549Z,5
2023-02-27T04:31:23.150Z,5.599
2023-02-27T04:32:23.169Z,5.699
2023-02-27T04:33:22.348Z,5.599
2023-02-27T04:34:22.996Z,5.199
2023-02-27T04:35:22.582Z,5.400
2023-02-27T04:36:22.221Z,5.800
2023-02-27T04:37:22.391Z,5.400
2023-02-27T04:38:22.429Z,6.300
2023-02-27T04:39:27.526Z,4.800
2023-02-27T04:40:23.287Z,5.900
2023-02-27T04:41:27.594Z,4.699
2023-02-27T04:42:22.894Z,5.900
2023-02-27T04:43:22.035Z,5
2023-02-27T04:44:22.488Z,4.800
2023-02-27T04:45:22.620Z,5.199
2023-02-27T04:46:21.993Z,5.699
2023-02-27T04:47:22.938Z,4.900
2023-02-27T04:48:22.186Z,4.699
2023-02-27T04:49:23.036Z,4.900
2023-02-27T04:50:23.153Z,5.199
2023-02-27T04:51:22.346Z,4.699
2023-02-27T04:52:22.292Z,5
2023-02-27T04:53:37.114Z,5.400
2023-02-27T04:54:22.199Z,4.699
2023-02-27T04:55:22.767Z,5.199
2023-02-27T04:56:23.112Z,5.699
2023-02-27T04:57:22.428Z,5.199
2023-02-27T04:58:24.394Z,5.800
2023-02-27T04:59:22.358Z,5.400
2023-02-27T05:00:24.343Z,5.5
2023-02-27T05:01:23.266Z,5.400
2023-02-27T05:02:23.298Z,5.5
2023-02-27T05:03:22.527Z,4.599
2023-02-27T05:04:22.913Z,5.199
2023-02-27T05:05:23.175Z,5.800
2023-02-27T05:06:22.825Z,4.400
2023-02-27T05:07:41.679Z,5.099
2023-02-27T05:09:22.426Z,5.199
2023-02-27T05:10:24.056Z,6.599
2023-02-27T05:11:41.606Z,5.599
2023-02-27T05:12:22.648Z,6
2023-02-27T05:13:41.803Z,5
2023-02-27T05:14:22.211Z,4.5
2023-02-27T05:15:42.428Z,5.400
2023-02-27T05:16:23.222Z,5
2023-02-27T05:17:22.424Z,7.400
2023-02-27T05:18:22.678Z,5.900
2023-02-27T05:19:44.195Z,5.5
2023-02-27T05:20:22.996Z,5.599
2023-02-27T05:21:22.427Z,5.400
2023-02-27T05:22:23.609Z,4.900
2023-02-27T05:23:22.159Z,5.699
2023-02-27T05:24:22.593Z,5.300
2023-02-27T05:25:23.007Z,5
2023-02-27T05:26:22.794Z,5.800
2023-02-27T05:28:24.589Z,4.900
2023-02-27T05:29:22.555Z,5.400
2023-02-27T05:30:22.960Z,5.800
2023-02-27T05:32:24.811Z,6.400
2023-02-27T05:33:22.821Z,8.5
2023-02-27T05:34:23.025Z,5.5
2023-02-27T05:35:23.005Z,7.300
2023-02-27T05:36:22.759Z,5.400
2023-02-27T05:37:22.754Z,5.199
2023-02-27T05:38:23.112Z,5.599
2023-02-27T05:39:22.511Z,5.300
2023-02-27T05:40:23.280Z,5.400
2023-02-27T05:41:23.316Z,6.400
2023-02-27T05:42:23.549Z,5.099
2023-02-27T05:43:22.915Z,5.800
2023-02-27T05:44:22.554Z,5
2023-02-27T05:45:23.271Z,5.699
2023-02-27T05:46:22.578Z,5.099
2023-02-27T05:47:22.568Z,5.900
2023-02-27T05:48:22.679Z,5.400
2023-02-27T05:49:22.243Z,4.900
2023-02-27T05:50:23.263Z,5.800
2023-02-27T05:51:22.779Z,6.599
2023-02-27T05:52:23.047Z,6
2023-02-27T05:53:22.643Z,5
2023-02-27T05:54:22.551Z,5.900
2023-02-27T05:55:23.208Z,5.199
2023-02-27T05:56:22.751Z,5.5
2023-02-27T05:58:22.438Z,4.900
2023-02-27T05:59:22.727Z,5.699
2023-02-27T06:00:23.826Z,6
2023-02-27T06:01:22.878Z,6.199
2023-02-27T06:02:23.225Z,4.900
2023-02-27T06:03:23.941Z,6.5
2023-02-27T06:04:22.944Z,5.400
2023-02-27T06:05:23.268Z,5.699
2023-02-27T06:06:23.551Z,5.300
2023-02-27T06:07:23.279Z,7
2023-02-27T06:08:22.912Z,5.199
2023-02-27T06:09:23.412Z,5.699
2023-02-27T06:10:23.252Z,5.900
2023-02-27T06:11:23.701Z,5.300
2023-02-27T06:12:23.877Z,5.900
2023-02-27T06:13:23.782Z,6.900
2023-02-27T06:14:23.839Z,5.400
2023-02-27T06:15:23.197Z,5.900
2023-02-27T06:16:23.145Z,5.300
2023-02-27T06:17:22.855Z,5.199
2023-02-27T06:18:23.396Z,5.599
2023-02-27T06:19:23.895Z,5.800
2023-02-27T06:20:23.224Z,8
2023-02-27T06:21:23.263Z,5.900
2023-02-27T06:22:22.975Z,6
2023-02-27T06:23:23.065Z,5.599
2023-02-27T06:24:23.143Z,5.300
2023-02-27T06:25:23.574Z,6.400
2023-02-27T06:26:23.366Z,6.099
2023-02-27T06:27:23.339Z,6.400
2023-02-27T06:28:23.865Z,6.099
2023-02-27T06:29:23.202Z,5.800
2023-02-27T06:30:24.159Z,6.800
2023-02-27T06:31:23.281Z,6.099
2023-02-27T06:32:22.945Z,5.300
2023-02-27T06:33:23.170Z,5.800
2023-02-27T06:34:23.196Z,5.5
2023-02-27T06:35:23.266Z,5.800
2023-02-27T06:36:23.134Z,6.699
2023-02-27T06:37:22.652Z,5.099
2023-02-27T06:38:22.979Z,5.300
2023-02-27T06:39:23.932Z,5.699
2023-02-27T06:40:22.980Z,5.599
2023-02-27T06:41:23.084Z,5.300
2023-02-27T06:42:22.651Z,6.199
2023-02-27T06:43:22.480Z,5.400
2023-02-27T06:44:22.334Z,4.800
2023-02-27T06:45:23.515Z,8
2023-02-27T06:46:22.436Z,6.5
2023-02-27T06:47:23.297Z,6.300
2023-02-27T06:48:22.925Z,5.800
2023-02-27T06:49:22.660Z,6.599
2023-02-27T06:50:23.766Z,6.199
2023-02-27T06:51:23.254Z,5.699
2023-02-27T06:52:22.727Z,6.400
2023-02-27T06:53:22.431Z,5.900
2023-02-27T06:54:22.401Z,5.800
2023-02-27T06:55:23.043Z,4.900
2023-02-27T06:56:22.629Z,6
2023-02-27T06:57:23.398Z,5.599
2023-02-27T06:58:28.343Z,5.099
2023-02-27T06:59:23.082Z,6.400
2023-02-27T07:00:25.925Z,5.699
2023-02-27T07:01:24.107Z,5.300
2023-02-27T07:02:28.023Z,6
2023-02-27T07:03:23.471Z,5.5
2023-02-27T07:04:23.450Z,6.099
2023-02-27T07:05:24.859Z,5.800
2023-02-27T07:07:33.199Z,5.900
2023-02-27T07:07:33.907Z,5.699
2023-02-27T07:08:23.992Z,6.599
2023-02-27T07:09:23.254Z,5.900
2023-02-27T07:10:23.743Z,7.300
2023-02-27T07:11:23.814Z,5.699
2023-02-27T07:12:23.237Z,6.300
2023-02-27T07:13:23.485Z,6.599
2023-02-27T07:14:23.346Z,5.900
2023-02-27T07:15:24.603Z,5.300
2023-02-27T07:16:23.241Z,6.400
2023-02-27T07:17:22.840Z,8.800
2023-02-27T07:18:23.233Z,9.600
2023-02-27T07:19:22.834Z,10.5
2023-02-27T07:20:23.397Z,12.30
2023-02-27T07:21:23.585Z,16.20
2023-02-27T07:22:23.192Z,16
2023-02-27T07:23:22.673Z,21.89
2023-02-27T07:24:23.014Z,20.89
2023-02-27T07:25:22.988Z,21.29
2023-02-27T07:26:23.552Z,22.60
2023-02-27T07:27:23.018Z,20.10
2023-02-27T07:28:22.693Z,18.5
2023-02-27T07:29:23.428Z,16.20
2023-02-27T07:30:23.599Z,14.30
2023-02-27T07:31:23.158Z,14
2023-02-27T07:32:23.426Z,14.10
2023-02-27T07:33:23.220Z,12.19
2023-02-27T07:34:22.886Z,10.10
2023-02-27T07:35:24.082Z,13
2023-02-27T07:36:42.258Z,9.699
2023-02-27T07:37:23.205Z,10.10
2023-02-27T07:38:22.733Z,10.39
2023-02-27T07:39:23.633Z,9.899
2023-02-27T07:40:23.289Z,10.10
2023-02-27T07:41:30.428Z,9
2023-02-27T07:42:23.394Z,8.399
2023-02-27T07:43:23.177Z,8.199
2023-02-27T07:44:23.778Z,8.699
2023-02-27T07:45:23.951Z,8
2023-02-27T07:46:23.140Z,9.399
2023-02-27T07:47:23.513Z,9.100
2023-02-27T07:48:22.959Z,8.300
2023-02-27T07:49:23.102Z,7.199
2023-02-27T07:50:23.341Z,8.699
2023-02-27T07:51:23.067Z,8.399
2023-02-27T07:52:23.816Z,8.899
2023-02-27T07:53:23.170Z,9.199
2023-02-27T07:54:23.769Z,8.800
2023-02-27T07:55:23.278Z,9.699
2023-02-27T07:56:23.001Z,11.30
2023-02-27T07:57:23.223Z,8.199
2023-02-27T07:58:23.480Z,8
2023-02-27T08:01:27.188Z,7.800
2023-02-27T08:02:23.438Z,7.599
2023-02-27T08:03:23.193Z,8.600
2023-02-27T08:04:23.154Z,6.5
2023-02-27T08:05:23.102Z,7.599
2023-02-27T08:06:22.656Z,6.800
2023-02-27T08:07:22.932Z,8.100
2023-02-27T08:08:22.854Z,8.300
2023-02-27T08:09:23.561Z,8.800
2023-02-27T08:10:23.425Z,6.800
2023-02-27T08:11:22.867Z,6.699
2023-02-27T08:13:55.673Z,7.300
2023-02-27T08:14:34.194Z,9.199
2023-02-27T08:15:23.475Z,7.800
2023-02-27T08:16:22.908Z,6.699
2023-02-27T08:17:23.402Z,6.5
2023-02-27T08:18:23.165Z,8
2023-02-27T08:20:23.135Z,10.5
2023-02-27T08:21:22.706Z,8
2023-02-27T08:22:23.334Z,8.699
2023-02-27T08:23:22.964Z,9.100
2023-02-27T08:25:23.186Z,8.300
2023-02-27T08:26:23.123Z,8.699
2023-02-27T08:27:23.601Z,8.399
2023-02-27T08:28:22.817Z,10.10
2023-02-27T08:29:23.879Z,8.699
2023-02-27T08:30:28.029Z,9.699
2023-02-27T08:31:23.405Z,12.10
2023-02-27T08:32:23.890Z,10.60
2023-02-27T08:33:23.528Z,7.800
2023-02-27T08:34:23.708Z,9
2023-02-27T08:35:23.952Z,8
2023-02-27T08:36:23.264Z,7.599
2023-02-27T08:37:23.296Z,8.199
2023-02-27T08:38:26.013Z,8
2023-02-27T08:39:22.758Z,8.800
2023-02-27T08:40:23.912Z,7.699
2023-02-27T08:41:23.397Z,6.599
2023-02-27T08:42:23.699Z,6.699
2023-02-27T08:43:23.183Z,5.900
2023-02-27T08:44:22.951Z,6.599
2023-02-27T08:45:23.476Z,7
2023-02-27T08:46:22.981Z,7.400
2023-02-27T08:47:23.222Z,7.199
2023-02-27T08:48:23.643Z,5.900
2023-02-27T08:49:22.309Z,7
2023-02-27T08:50:24.276Z,5.900
2023-02-27T08:51:22.663Z,7
2023-02-27T08:52:24.936Z,7.599
2023-02-27T08:53:23.412Z,6.300
2023-02-27T08:54:23.008Z,6.599
2023-02-27T08:55:22.714Z,6.099
2023-02-27T08:56:23.131Z,7.199
2023-02-27T08:57:23.506Z,6.300
2023-02-27T08:58:22.638Z,7.199
2023-02-27T08:59:23.445Z,5.800
2023-02-27T09:00:24.880Z,5.599
2023-02-27T09:01:23.394Z,5.199
2023-02-27T09:02:23.619Z,4.800
2023-02-27T09:03:23.602Z,5.199
2023-02-27T09:04:24.119Z,6.400
2023-02-27T09:05:22.778Z,5.699
2023-02-27T09:06:25.088Z,6.099
2023-02-27T09:07:23.577Z,6.400
2023-02-27T09:08:23.247Z,5.5
2023-02-27T09:09:23.693Z,5.400
2023-02-27T09:10:23.210Z,5.199
2023-02-27T09:11:23.183Z,6.099
2023-02-27T09:12:22.990Z,5.199
2023-02-27T09:13:22.694Z,6.400
2023-02-27T09:14:23.046Z,4.699
2023-02-27T09:15:23.069Z,5.199
2023-02-27T09:17:22.184Z,6
2023-02-27T09:18:22.490Z,6.199
2023-02-27T09:19:22.544Z,5.199
2023-02-27T09:20:22.599Z,7.099
2023-02-27T09:21:22.984Z,5.5
2023-02-27T09:22:22.527Z,5.800
2023-02-27T09:23:23.443Z,4.800
2023-02-27T09:24:23.309Z,6.900
2023-02-27T09:25:22.854Z,8.399
2023-02-27T09:26:35.726Z,5.800
2023-02-27T09:27:23.052Z,5.599
2023-02-27T09:28:23.087Z,4.099
2023-02-27T09:29:22.602Z,5.099
2023-02-27T09:30:22.550Z,5.400
2023-02-27T09:31:22.608Z,5.199
2023-02-27T09:33:23.291Z,5.800
2023-02-27T09:34:22.666Z,4
2023-02-27T09:35:23.733Z,4.800
2023-02-27T09:36:22.993Z,5.599
2023-02-27T09:37:23.109Z,4.300
2023-02-27T09:38:23.272Z,4.900
2023-02-27T09:39:22.440Z,3.700
2023-02-27T09:40:23.423Z,3.299
2023-02-27T09:41:22.434Z,4.300
2023-02-27T09:42:23.402Z,3.900
2023-02-27T09:43:22.847Z,3.5
2023-02-27T09:44:33.441Z,4.099
2023-02-27T09:45:22.819Z,4.5
2023-02-27T09:46:22.482Z,3.5
2023-02-27T09:48:22.533Z,3.700
2023-02-27T09:49:22.524Z,4.5
2023-02-27T09:50:23.228Z,4.800
2023-02-27T09:51:22.763Z,3.599
2023-02-27T09:52:23.089Z,3.200
2023-02-27T09:53:22.588Z,4.199
2023-02-27T09:54:23.151Z,3.799
2023-02-27T09:55:23.135Z,3.5
2023-02-27T09:56:23.040Z,2.900
2023-02-27T09:57:23.398Z,3.700
2023-02-27T09:58:22.402Z,4.099
2023-02-27T09:59:23.471Z,3.599
2023-02-27T10:00:24.492Z,3.400
2023-02-27T10:01:23.242Z,3.900
2023-02-27T10:02:22.896Z,4.800
2023-02-27T10:03:22.754Z,4.699
2023-02-27T10:04:23.532Z,4.300
2023-02-27T10:05:23.183Z,5.099
2023-02-27T10:06:23.048Z,4.800
2023-02-27T10:07:42.220Z,4.300
2023-02-27T10:08:22.781Z,4
2023-02-27T10:09:23.155Z,4.099
2023-02-27T10:10:23.135Z,4.300
2023-02-27T10:11:23.488Z,3.799
2023-02-27T10:12:23.428Z,2.799
2023-02-27T10:13:23.440Z,3.799
2023-02-27T10:14:22.901Z,3.700
2023-02-27T10:15:23.569Z,3.900
2023-02-27T10:16:23.629Z,3.400
2023-02-27T10:17:23.136Z,3.599
2023-02-27T10:18:27.643Z,3.900
2023-02-27T10:19:22.643Z,3.299
2023-02-27T10:20:22.622Z,2.700
2023-02-27T10:21:22.980Z,4
2023-02-27T10:23:23.518Z,3.900
2023-02-27T10:24:22.556Z,4.699
2023-02-27T10:25:30.266Z,5.199
2023-02-27T10:26:24.120Z,3.599
2023-02-27T10:27:23.057Z,4.900
2023-02-27T10:28:23.081Z,4.400
2023-02-27T10:29:22.498Z,8.699
2023-02-27T10:30:29.236Z,3.200
2023-02-27T10:31:22.822Z,3.900
2023-02-27T10:32:22.777Z,3.700
2023-02-27T10:33:23.222Z,4.199
2023-02-27T10:34:22.862Z,3.5
2023-02-27T10:35:23.054Z,3.299
2023-02-27T10:36:32.951Z,3.799
2023-02-27T10:37:23.257Z,3.599
2023-02-27T10:38:23.255Z,4.5
2023-02-27T10:39:22.289Z,3.599
2023-02-27T10:40:22.898Z,3.099
2023-02-27T10:41:23.449Z,4.199
2023-02-27T10:42:22.549Z,3.900
2023-02-27T10:43:22.931Z,3.400
2023-02-27T10:44:22.559Z,4.099
2023-02-27T10:45:23.714Z,3.099
2023-02-27T10:46:22.150Z,4.199
2023-02-27T10:47:22.988Z,3.599
2023-02-27T10:48:23.013Z,3.5
2023-02-27T10:49:22.661Z,4.800
2023-02-27T10:50:23.945Z,3.599
2023-02-27T10:53:22.832Z,2.900
2023-02-27T10:54:22.657Z,3.400
2023-02-27T10:55:23.336Z,3.599
2023-02-27T10:56:22.949Z,4.599
2023-02-27T10:57:23.154Z,3.299
2023-02-27T10:59:23.331Z,4
2023-02-27T11:00:26.023Z,4.300
2023-02-27T11:01:23.469Z,3.299
2023-02-27T11:02:23.772Z,4.5
2023-02-27T11:03:24.499Z,4.599
2023-02-27T11:04:22.924Z,3.700
2023-02-27T11:05:22.773Z,4.300
2023-02-27T11:06:23.281Z,3.900
2023-02-27T11:07:22.113Z,4.199
2023-02-27T11:08:22.574Z,3.799
2023-02-27T11:09:22.936Z,4.5
2023-02-27T11:10:23.110Z,3.400
2023-02-27T11:11:22.322Z,3.599
2023-02-27T11:12:22.501Z,2.900
2023-02-27T11:13:22.562Z,3.299
2023-02-27T11:14:22.684Z,3.700
2023-02-27T11:15:22.996Z,5.400
2023-02-27T11:16:23.207Z,5.199
2023-02-27T11:17:23.330Z,3.5
2023-02-27T11:18:22.855Z,3.700
2023-02-27T11:19:23.402Z,3.799
2023-02-27T11:20:23.426Z,3.400
2023-02-27T11:21:22.884Z,5.099
2023-02-27T11:22:23.223Z,3.200
2023-02-27T11:23:22.615Z,3.5
2023-02-27T11:24:22.501Z,2.900
2023-02-27T11:25:23.211Z,3.900
2023-02-27T11:26:22.248Z,3.5
2023-02-27T11:27:23.286Z,4.099
2023-02-27T11:28:23.360Z,4.800
2023-02-27T11:29:23.308Z,3.700
2023-02-27T11:30:26.442Z,4.300
2023-02-27T11:31:22.896Z,3.700
2023-02-27T11:32:24.148Z,5.699
2023-02-27T11:33:22.877Z,3.900
2023-02-27T11:34:23.614Z,3.299
2023-02-27T11:35:22.887Z,4.300
2023-02-27T11:36:21.812Z,4.5
2023-02-27T11:37:23.268Z,4
2023-02-27T11:38:23.529Z,4.099
2023-02-27T11:39:23.248Z,3.099
2023-02-27T11:40:22.801Z,5.900
2023-02-27T11:41:23.690Z,3.599
2023-02-27T11:42:23.220Z,3.200
2023-02-27T11:43:22.432Z,3.599
2023-02-27T11:44:34.040Z,4.099
2023-02-27T11:46:04.540Z,3.400
2023-02-27T11:46:41.181Z,3.099
2023-02-27T11:47:23.393Z,3.299
2023-02-27T11:48:22.880Z,3.400
2023-02-27T11:49:22.747Z,2.799
2023-02-27T11:50:28.105Z,2.599
2023-02-27T11:52:27.852Z,4.5
2023-02-27T11:54:27.848Z,4.900
2023-02-27T11:55:23.546Z,4
2023-02-27T11:56:22.628Z,3.200
2023-02-27T11:57:22.568Z,2.900
2023-02-27T11:58:22.594Z,4.099
2023-02-27T11:59:22.882Z,3.700
2023-02-27T12:00:24.361Z,4.800
2023-02-27T12:01:22.849Z,3.5
2023-02-27T12:02:30.885Z,3.599
2023-02-27T12:03:23.139Z,3.099
2023-02-27T12:04:31.534Z,4.5
2023-02-27T12:05:23.008Z,3.200
2023-02-27T12:06:23.115Z,3.400
2023-02-27T12:07:23.285Z,4.199
2023-02-27T12:08:22.850Z,6.699
2023-02-27T12:09:22.799Z,4.099
2023-02-27T12:10:23.393Z,3.400
2023-02-27T12:11:23.046Z,3.900
2023-02-27T12:12:22.403Z,3.5
2023-02-27T12:13:23.171Z,3
2023-02-27T12:14:23.023Z,4.599
2023-02-27T12:15:22.917Z,3.099
2023-02-27T12:16:36.854Z,3.599
2023-02-27T12:17:23.190Z,2.799
2023-02-27T12:18:22.759Z,3.299
2023-02-27T12:19:22.514Z,2.900
2023-02-27T12:20:23.260Z,2.400
2023-02-27T12:21:22.675Z,3
2023-02-27T12:22:22.814Z,3.700
2023-02-27T12:23:23.008Z,3.900
2023-02-27T12:24:23.156Z,2.900
2023-02-27T12:25:23.013Z,2.599
2023-02-27T12:26:22.730Z,1.700
2023-02-27T12:27:23.791Z,2.700
2023-02-27T12:28:22.319Z,3
2023-02-27T12:29:22.801Z,3.400
2023-02-27T12:30:22.777Z,2.599
2023-02-27T12:31:23.643Z,2.900
2023-02-27T12:32:22.812Z,2.700
2023-02-27T12:33:22.408Z,2.200
2023-02-27T12:34:23.581Z,2.5
2023-02-27T12:36:23.348Z,2.700
2023-02-27T12:37:22.800Z,3.5
2023-02-27T12:38:23.309Z,2.099
2023-02-27T12:39:23.002Z,3.400
2023-02-27T12:40:23.253Z,2.400
2023-02-27T12:41:23.620Z,2
2023-02-27T12:42:22.983Z,2.900
2023-02-27T12:43:22.904Z,2.400
2023-02-27T12:45:23.062Z,2.900
2023-02-27T12:46:23.137Z,1.799
2023-02-27T12:47:22.614Z,2.900
2023-02-27T12:49:22.572Z,1.799
2023-02-27T12:50:22.993Z,1.899
2023-02-27T12:51:23.661Z,2.299
2023-02-27T12:52:23.148Z,1.799
2023-02-27T12:53:22.856Z,2.299
2023-02-27T12:54:22.962Z,3.200
2023-02-27T12:55:23.139Z,1.799
2023-02-27T12:56:24.018Z,2.700
2023-02-27T12:57:23.025Z,1.399
2023-02-27T12:58:22.691Z,1.600
2023-02-27T12:59:22.771Z,1.799
2023-02-27T13:00:25.589Z,2.299
2023-02-27T13:01:23.329Z,1.100
2023-02-27T13:02:23.064Z,1.899
2023-02-27T13:03:22.423Z,1.799
2023-02-27T13:04:23.372Z,2.200
2023-02-27T13:05:22.790Z,2.599
2023-02-27T13:07:27.214Z,2.200
2023-02-27T13:08:22.592Z,3
2023-02-27T13:09:22.974Z,3.299
2023-02-27T13:10:23.297Z,2.700
2023-02-27T13:11:22.702Z,1.899
2023-02-27T13:13:23.322Z,1.299
2023-02-27T13:14:23.111Z,2
2023-02-27T13:15:24.501Z,1.5
2023-02-27T13:16:22.568Z,1.799
2023-02-27T13:17:23.940Z,1.700
2023-02-27T13:18:23.641Z,1.299
2023-02-27T13:19:23.599Z,1.799
2023-02-27T13:20:23.546Z,2.099
2023-02-27T13:21:23.601Z,1.600
2023-02-27T13:22:23.582Z,2.299
2023-02-27T13:23:22.872Z,1.700
2023-02-27T13:24:24.293Z,1.600
2023-02-27T13:25:24.095Z,2.099
2023-02-27T13:26:23.383Z,2.299
2023-02-27T13:27:22.909Z,2.900
2023-02-27T13:28:23.219Z,2
2023-02-27T13:29:23.472Z,1.5
2023-02-27T13:30:23.527Z,2.099
2023-02-27T13:31:23.172Z,1.399
2023-02-27T13:32:30.007Z,2
2023-02-27T13:33:23.924Z,1.299
2023-02-27T13:34:22.935Z,3.900
2023-02-27T13:35:22.986Z,1.899
2023-02-27T13:36:24.444Z,1.700
2023-02-27T13:37:22.649Z,0.899